Time;durP1;ratioP1;P1;durP2;ratioP2;P2;SDS_P1;SDS_P2;PMS_P1;PMS_P2;Temp;Humidity;BMP_temperature;BMP_pressure;BME280_temperature;BME280_humidity;BME280_pressure;Samples;Min_cycle;Max_cycle;Signal;HPM_P1;HPM_P2
2023/10/31 05:30:42;;;;;;;0.10;0.10;;;10.70;89.00;;;;;;5842326;23;20141;-76
2023/10/31 05:33:08;;;;;;;0.10;0.10;;;10.70;88.80;;;;;;5006801;28;20844;-76
2023/10/31 05:35:34;;;;;;;0.10;0.10;;;10.70;88.80;;;;;;5003569;28;20022;-77
2023/10/31 05:37:59;;;;;;;0.10;0.10;;;10.70;88.70;;;;;;4979538;28;20049;-76
2023/10/31 05:40:27;;;;;;;0.10;0.10;;;10.70;88.70;;;;;;5022131;28;20034;-76
2023/10/31 05:42:52;;;;;;;0.10;0.10;;;10.70;88.80;;;;;;4999704;28;20026;-77
2023/10/31 05:45:18;;;;;;;0.10;0.10;;;10.70;88.80;;;;;;5000195;28;20030;-76
2023/10/31 05:47:44;;;;;;;0.20;0.15;;;10.70;88.80;;;;;;5000088;28;20022;-76
2023/10/31 05:50:09;;;;;;;0.10;0.10;;;10.60;89.00;;;;;;5012148;28;20077;-76
2023/10/31 05:52:36;;;;;;;0.10;0.10;;;10.60;89.10;;;;;;5000107;28;20469;-76
2023/10/31 05:55:02;;;;;;;0.10;0.10;;;10.60;89.10;;;;;;5000496;28;20038;-76
2023/10/31 05:57:27;;;;;;;0.15;0.10;;;10.60;89.10;;;;;;4998736;28;20027;-76
2023/10/31 05:59:53;;;;;;;0.10;0.10;;;10.60;88.90;;;;;;5000168;28;20029;-76
2023/10/31 06:02:18;;;;;;;0.10;0.10;;;10.60;88.90;;;;;;5001781;28;20041;-76
2023/10/31 06:04:44;;;;;;;0.10;0.10;;;10.50;88.80;;;;;;5012525;28;20042;-76
2023/10/31 06:07:11;;;;;;;0.10;0.10;;;10.50;88.70;;;;;;5019359;28;20072;-76
2023/10/31 06:09:36;;;;;;;0.10;0.10;;;10.50;88.70;;;;;;5002556;28;20026;-76
2023/10/31 06:12:02;;;;;;;0.10;0.10;;;10.50;88.80;;;;;;4999775;28;20024;-75
2023/10/31 06:14:28;;;;;;;0.10;0.10;;;10.50;88.70;;;;;;4999713;28;20078;-75
2023/10/31 06:16:54;;;;;;;0.10;0.10;;;10.40;88.80;;;;;;4999744;28;20022;-75
2023/10/31 06:19:20;;;;;;;0.10;0.10;;;10.50;88.80;;;;;;4999327;28;20030;-75
2023/10/31 06:21:46;;;;;;;0.10;0.10;;;10.50;88.70;;;;;;4999456;28;20105;-76
2023/10/31 06:24:11;;;;;;;0.10;0.10;;;10.50;88.50;;;;;;5011294;28;20092;-75
2023/10/31 06:26:37;;;;;;;0.10;0.10;;;10.50;88.50;;;;;;5019180;28;20060;-75
2023/10/31 06:29:03;;;;;;;0.10;0.10;;;10.40;88.50;;;;;;5013832;28;20024;-75
2023/10/31 06:31:29;;;;;;;0.10;0.10;;;10.40;88.50;;;;;;5018708;28;20052;-75
2023/10/31 06:33:54;;;;;;;0.10;0.10;;;10.40;88.30;;;;;;5013427;28;20066;-75
2023/10/31 06:36:20;;;;;;;0.10;0.10;;;10.40;88.50;;;;;;5018550;28;20041;-75
2023/10/31 06:38:45;;;;;;;0.10;0.10;;;10.30;88.50;;;;;;5007525;28;20467;-75
2023/10/31 06:41:11;;;;;;;0.10;0.10;;;10.30;88.60;;;;;;5014169;28;20026;-75
2023/10/31 06:43:37;;;;;;;0.10;0.10;;;10.30;88.70;;;;;;4999137;28;20023;-75
2023/10/31 06:46:04;;;;;;;0.10;0.10;;;10.30;88.60;;;;;;4999041;28;20030;-75
2023/10/31 06:48:30;;;;;;;0.10;0.10;;;10.30;88.60;;;;;;4999427;28;20029;-75
2023/10/31 06:50:56;;;;;;;0.10;0.10;;;10.30;88.60;;;;;;5007999;28;20022;-75
2023/10/31 06:53:21;;;;;;;0.10;0.10;;;10.30;88.80;;;;;;5018030;28;20036;-75
2023/10/31 06:55:47;;;;;;;0.10;0.10;;;10.30;88.70;;;;;;5012732;28;20049;-75
2023/10/31 06:58:13;;;;;;;0.10;0.10;;;10.30;88.80;;;;;;4981494;28;20030;-75
2023/10/31 07:00:38;;;;;;;0.10;0.10;;;10.30;88.70;;;;;;4981459;28;20061;-75
2023/10/31 07:03:09;;;;;;;0.10;0.10;;;10.30;88.80;;;;;;4998729;28;20077;-75
2023/10/31 07:05:35;;;;;;;0.10;0.10;;;10.40;88.80;;;;;;5004624;28;20022;-75
2023/10/31 07:08:02;;;;;;;0.10;0.10;;;10.30;88.90;;;;;;4995989;28;20539;-76
2023/10/31 07:10:28;;;;;;;0.10;0.10;;;10.40;89.10;;;;;;5017862;28;20416;-77
2023/10/31 07:12:54;;;;;;;0.10;0.10;;;10.50;88.90;;;;;;5018044;28;20030;-79
2023/10/31 07:15:20;;;;;;;0.10;0.10;;;10.50;89.00;;;;;;5018478;28;20057;-77
2023/10/31 07:17:46;;;;;;;0.10;0.10;;;10.60;89.00;;;;;;5017129;28;20026;-78
2023/10/31 07:20:12;;;;;;;0.10;0.10;;;10.70;88.90;;;;;;5008505;28;20025;-78
2023/10/31 07:22:39;;;;;;;0.10;0.10;;;10.70;88.90;;;;;;5006997;28;20026;-81
2023/10/31 07:25:06;;;;;;;0.10;0.10;;;10.70;88.80;;;;;;5006539;28;20026;-78
2023/10/31 07:27:31;;;;;;;0.10;0.10;;;10.70;88.80;;;;;;4990971;28;20026;-77
2023/10/31 07:29:57;;;;;;;0.10;0.10;;;10.80;88.90;;;;;;5008431;28;20049;-77
2023/10/31 07:32:23;;;;;;;0.10;0.10;;;10.80;89.00;;;;;;5009278;28;20100;-77
2023/10/31 07:34:48;;;;;;;0.10;0.10;;;10.90;88.80;;;;;;5015822;28;20034;-76
2023/10/31 07:37:14;;;;;;;0.10;0.10;;;11.00;88.90;;;;;;5013570;28;20030;-78
2023/10/31 07:39:40;;;;;;;0.10;0.10;;;11.10;88.70;;;;;;5012599;28;20128;-79
2023/10/31 07:42:06;;;;;;;0.10;0.10;;;11.20;88.70;;;;;;5005616;28;20034;-79
2023/10/31 07:44:31;;;;;;;0.10;0.10;;;11.20;88.60;;;;;;4980286;28;20117;-78
2023/10/31 07:46:57;;;;;;;0.10;0.10;;;11.30;88.50;;;;;;5004121;28;20042;-81
2023/10/31 07:49:23;;;;;;;0.10;0.10;;;11.40;88.60;;;;;;4994065;28;20029;-86
2023/10/31 07:51:48;;;;;;;0.10;0.10;;;11.40;88.50;;;;;;5010371;28;20022;-79
2023/10/31 07:54:15;;;;;;;0.10;0.10;;;11.40;88.60;;;;;;5005694;28;20128;-83
2023/10/31 07:56:41;;;;;;;0.10;0.10;;;11.50;88.50;;;;;;5010090;28;20018;-82
2023/10/31 07:59:10;;;;;;;0.10;0.10;;;11.50;88.50;;;;;;5003641;28;20036;-86
2023/10/31 08:01:37;;;;;;;0.10;0.10;;;11.60;88.60;;;;;;5011053;28;20014;-81
2023/10/31 08:04:02;;;;;;;0.10;0.10;;;11.70;88.40;;;;;;5001413;28;20032;-82
2023/10/31 08:06:28;;;;;;;0.10;0.10;;;11.80;88.40;;;;;;5000203;28;20007;-81
2023/10/31 08:08:54;;;;;;;0.10;0.10;;;11.90;88.30;;;;;;5004447;28;20466;-82
2023/10/31 08:11:20;;;;;;;0.10;0.10;;;11.90;88.30;;;;;;4990887;28;20022;-81
2023/10/31 08:13:46;;;;;;;0.10;0.10;;;11.90;88.40;;;;;;5004367;28;20392;-82
2023/10/31 08:16:19;;;;;;;0.10;0.10;;;12.00;88.50;;;;;;5008471;28;20025;-82
2023/10/31 08:18:45;;;;;;;0.10;0.10;;;12.00;88.40;;;;;;4985985;28;20044;-82
2023/10/31 08:21:12;;;;;;;0.10;0.10;;;12.10;88.50;;;;;;5008802;28;20021;-82
2023/10/31 08:23:37;;;;;;;0.10;0.10;;;12.20;88.40;;;;;;5005982;28;20099;-81
2023/10/31 08:26:03;;;;;;;0.10;0.10;;;12.20;88.50;;;;;;5007164;28;20014;-82
2023/10/31 08:28:30;;;;;;;0.10;0.10;;;12.30;88.40;;;;;;5007126;28;20041;-82
2023/10/31 08:30:55;;;;;;;0.10;0.10;;;12.30;88.30;;;;;;5007017;28;20044;-82
2023/10/31 08:33:21;;;;;;;0.10;0.10;;;12.40;88.30;;;;;;5007715;28;20404;-82
2023/10/31 08:35:47;;;;;;;0.20;0.10;;;12.50;88.20;;;;;;5008626;28;20097;-82
2023/10/31 08:38:13;;;;;;;0.10;0.10;;;12.70;88.20;;;;;;4995318;28;20085;-82
2023/10/31 08:40:38;;;;;;;0.10;0.10;;;12.80;88.10;;;;;;5004783;28;20579;-82
2023/10/31 08:43:06;;;;;;;0.10;0.10;;;12.80;88.00;;;;;;5004220;28;20148;-80
2023/10/31 08:45:32;;;;;;;0.10;0.10;;;12.80;87.90;;;;;;5006950;28;20030;-81
2023/10/31 08:47:58;;;;;;;0.10;0.10;;;12.80;88.00;;;;;;5005133;28;20034;-82
2023/10/31 08:50:24;;;;;;;0.20;0.20;;;12.80;87.90;;;;;;5005886;28;20025;-82
2023/10/31 08:52:50;;;;;;;0.10;0.10;;;12.80;88.00;;;;;;5005632;28;20062;-83
2023/10/31 08:55:16;;;;;;;0.10;0.10;;;12.80;88.10;;;;;;5001988;28;20033;-81
2023/10/31 08:57:41;;;;;;;0.10;0.10;;;12.90;88.00;;;;;;4986668;28;20054;-81
2023/10/31 09:00:07;;;;;;;0.10;0.10;;;13.00;88.10;;;;;;4990835;28;20025;-86
2023/10/31 09:02:33;;;;;;;0.10;0.10;;;13.00;88.00;;;;;;4989419;28;20480;-82
2023/10/31 09:04:59;;;;;;;0.10;0.10;;;13.00;88.00;;;;;;5002322;28;20034;-81
2023/10/31 09:07:25;;;;;;;0.10;0.10;;;13.10;87.90;;;;;;5008729;28;20031;-85
2023/10/31 09:09:50;;;;;;;0.10;0.10;;;13.20;88.10;;;;;;5005102;28;20030;-87
2023/10/31 09:12:16;;;;;;;0.10;0.10;;;13.20;87.80;;;;;;5008604;28;20026;-86
2023/10/31 09:14:42;;;;;;;0.10;0.10;;;13.30;87.70;;;;;;4988540;28;20029;-90
2023/10/31 09:17:07;;;;;;;0.17;0.17;;;13.30;87.70;;;;;;4991511;28;20138;-82
2023/10/31 09:19:33;;;;;;;0.10;0.10;;;13.30;87.90;;;;;;5003393;28;20444;-82
2023/10/31 09:21:59;;;;;;;0.10;0.10;;;13.40;87.90;;;;;;5008659;28;20034;-79
2023/10/31 09:24:24;;;;;;;0.10;0.10;;;13.50;88.00;;;;;;5010707;28;20142;-82
2023/10/31 09:26:50;;;;;;;0.10;0.10;;;13.60;88.00;;;;;;4991169;28;20061;-92
2023/10/31 09:29:16;;;;;;;0.10;0.10;;;13.70;87.60;;;;;;4988253;28;20019;-81
2023/10/31 09:31:41;;;;;;;0.10;0.10;;;13.80;87.70;;;;;;5008306;28;20079;-80
2023/10/31 09:34:07;;;;;;;0.30;0.30;;;13.80;87.80;;;;;;5011014;28;20030;-79
2023/10/31 09:36:34;;;;;;;0.30;0.30;;;13.90;87.70;;;;;;4993388;28;20119;-78
2023/10/31 09:39:00;;;;;;;0.10;0.10;;;13.90;87.50;;;;;;4982923;28;20197;-85
2023/10/31 09:41:26;;;;;;;0.10;0.10;;;14.00;87.30;;;;;;4992687;28;20149;-86
2023/10/31 09:43:52;;;;;;;0.10;0.10;;;14.10;87.30;;;;;;4990173;28;20025;-88
2023/10/31 09:46:18;;;;;;;0.10;0.10;;;14.20;87.10;;;;;;5006280;28;20137;-85
2023/10/31 09:48:44;;;;;;;0.10;0.10;;;14.20;87.20;;;;;;5003791;28;20046;-86
2023/10/31 09:51:11;;;;;;;0.10;0.10;;;14.30;87.20;;;;;;4995872;28;20037;-86
2023/10/31 09:53:41;;;;;;;0.10;0.10;;;14.30;87.10;;;;;;5006943;28;20038;-82
2023/10/31 09:56:08;;;;;;;0.10;0.10;;;14.40;86.90;;;;;;5007515;28;20021;-86
2023/10/31 09:58:35;;;;;;;0.10;0.10;;;14.50;87.00;;;;;;4993539;28;20017;-88
2023/10/31 10:01:00;;;;;;;0.10;0.10;;;14.60;86.80;;;;;;4989114;28;20392;-84
2023/10/31 10:03:27;;;;;;;0.10;0.10;;;14.70;86.50;;;;;;4991167;28;20027;-87
2023/10/31 10:05:53;;;;;;;0.10;0.10;;;14.70;86.30;;;;;;4986223;28;20413;-86
2023/10/31 10:08:20;;;;;;;0.10;0.10;;;14.60;85.90;;;;;;5006048;28;20031;-82
2023/10/31 10:10:46;;;;;;;0.10;0.10;;;14.60;86.10;;;;;;5010139;28;20038;-86
2023/10/31 10:13:12;;;;;;;0.10;0.10;;;14.70;86.30;;;;;;4986383;28;20029;-79
2023/10/31 10:15:49;;;;;;;0.10;0.10;;;14.80;86.20;;;;;;5009198;28;20404;-83
2023/10/31 10:18:31;;;;;;;0.10;0.10;;;15.00;85.80;;;;;;5004716;28;20063;-80
2023/10/31 10:20:59;;;;;;;0.10;0.10;;;15.10;85.40;;;;;;5008376;28;20025;-81
2023/10/31 10:23:26;;;;;;;0.10;0.10;;;15.20;85.30;;;;;;5007956;28;20030;-82
2023/10/31 10:25:53;;;;;;;0.10;0.10;;;15.30;85.20;;;;;;5006787;28;20503;-81
2023/10/31 10:28:19;;;;;;;0.10;0.10;;;15.30;84.80;;;;;;5004528;28;20034;-81
2023/10/31 10:30:48;;;;;;;0.10;0.10;;;15.30;84.80;;;;;;5006715;28;20047;-82
2023/10/31 10:33:15;;;;;;;0.10;0.10;;;15.30;84.90;;;;;;5010008;28;20033;-83
2023/10/31 10:35:41;;;;;;;0.10;0.10;;;15.30;85.10;;;;;;5007867;28;20026;-78
2023/10/31 10:38:12;;;;;;;0.10;0.10;;;15.20;84.80;;;;;;5010871;28;20022;-79
2023/10/31 10:40:41;;;;;;;0.10;0.10;;;15.20;84.50;;;;;;4989881;28;20030;-88
2023/10/31 10:43:28;;;;;;;0.10;0.10;;;15.20;84.70;;;;;;5005484;28;20080;-81
2023/10/31 10:45:57;;;;;;;0.10;0.10;;;15.20;84.80;;;;;;5003949;28;20527;-83
2023/10/31 10:48:27;;;;;;;0.10;0.10;;;15.20;84.60;;;;;;5013340;28;20048;-85
2023/10/31 10:51:21;;;;;;;0.10;0.10;;;15.30;84.50;;;;;;4991461;28;20029;-88
2023/10/31 10:53:52;;;;;;;0.10;0.10;;;15.50;84.40;;;;;;4994114;28;20033;-85
2023/10/31 10:56:41;;;;;;;0.10;0.10;;;15.60;84.50;;;;;;4992599;28;20034;-88
2023/10/31 10:59:11;;;;;;;0.10;0.10;;;15.60;84.10;;;;;;4986946;28;20030;-85
2023/10/31 11:01:38;;;;;;;0.10;0.10;;;15.70;83.70;;;;;;5006323;28;20030;-89
2023/10/31 11:04:05;;;;;;;0.10;0.10;;;15.70;83.00;;;;;;4985081;28;20127;-82
2023/10/31 11:06:32;;;;;;;0.10;0.10;;;15.80;83.30;;;;;;5007999;28;20417;-91
2023/10/31 11:08:59;;;;;;;0.10;0.10;;;15.70;82.60;;;;;;4985965;28;20026;-84
2023/10/31 11:11:25;;;;;;;0.10;0.10;;;15.80;83.10;;;;;;4996838;28;20365;-84
2023/10/31 11:13:51;;;;;;;0.10;0.10;;;15.80;83.00;;;;;;4988158;28;20037;-86
2023/10/31 11:16:51;;;;;;;0.10;0.10;;;15.90;83.10;;;;;;5006920;28;20040;-89
2023/10/31 11:19:18;;;;;;;0.10;0.10;;;15.90;82.90;;;;;;4973467;28;20042;-87
2023/10/31 11:22:00;;;;;;;0.10;0.10;;;15.90;82.50;;;;;;5011313;28;20050;-88
2023/10/31 11:24:28;;;;;;;0.00;0.00;;;15.80;82.60;;;;;;4988255;28;20045;-90
2023/10/31 11:26:58;;;;;;;0.10;0.10;;;15.80;82.50;;;;;;4989695;28;20456;-83
2023/10/31 11:29:24;;;;;;;0.10;0.10;;;15.90;83.00;;;;;;4989219;28;20431;-79
2023/10/31 11:31:49;;;;;;;0.10;0.10;;;16.00;82.00;;;;;;5007451;28;20080;-84
2023/10/31 11:34:19;;;;;;;0.10;0.10;;;16.20;82.10;;;;;;5005149;28;20038;-82
2023/10/31 11:36:49;;;;;;;0.10;0.10;;;16.10;82.10;;;;;;5009984;28;20030;-81
2023/10/31 11:39:20;;;;;;;0.10;0.10;;;16.10;82.20;;;;;;5003449;28;20025;-86
2023/10/31 11:41:50;;;;;;;0.10;0.10;;;16.10;82.20;;;;;;5017771;28;20070;-86
2023/10/31 11:44:17;;;;;;;0.10;0.10;;;16.10;81.10;;;;;;4988869;28;20480;-92
2023/10/31 11:46:43;;;;;;;0.10;0.10;;;16.30;81.90;;;;;;4992957;28;20372;-81
2023/10/31 11:49:08;;;;;;;0.10;0.10;;;16.30;81.20;;;;;;4998850;28;20504;-89
2023/10/31 11:51:35;;;;;;;0.10;0.10;;;16.50;81.50;;;;;;4989738;28;20057;-86
2023/10/31 11:54:02;;;;;;;0.10;0.10;;;16.60;81.10;;;;;;4987871;28;20112;-82
2023/10/31 11:56:28;;;;;;;0.10;0.10;;;16.70;80.80;;;;;;5014456;28;20025;-87
2023/10/31 11:59:04;;;;;;;0.10;0.10;;;16.70;80.50;;;;;;5001394;28;20104;-83
2023/10/31 12:01:30;;;;;;;0.10;0.10;;;16.70;80.80;;;;;;4985954;28;20029;-84
2023/10/31 12:03:55;;;;;;;0.10;0.10;;;16.60;80.70;;;;;;5008990;28;20034;-78
2023/10/31 12:06:21;;;;;;;0.00;0.00;;;16.50;80.80;;;;;;5004596;28;20026;-78
2023/10/31 12:08:49;;;;;;;0.10;0.10;;;16.40;80.90;;;;;;5017237;28;20036;-78
2023/10/31 12:11:23;;;;;;;0.10;0.10;;;16.30;81.10;;;;;;5013013;28;20105;-79
2023/10/31 12:13:56;;;;;;;0.10;0.10;;;16.30;81.20;;;;;;4995716;28;20404;-78
2023/10/31 12:16:30;;;;;;;0.10;0.10;;;16.30;81.60;;;;;;4979788;28;20027;-79
2023/10/31 12:19:00;;;;;;;0.10;0.10;;;16.30;81.60;;;;;;5001118;28;20037;-79
2023/10/31 12:21:39;;;;;;;0.08;0.08;;;16.20;81.70;;;;;;5000976;28;20504;-81
2023/10/31 12:24:10;;;;;;;0.10;0.10;;;16.20;80.80;;;;;;5007926;28;20394;-83
2023/10/31 12:26:36;;;;;;;0.10;0.10;;;16.20;81.30;;;;;;4998081;28;20024;-83
2023/10/31 12:29:22;;;;;;;0.10;0.10;;;16.20;80.90;;;;;;5018684;28;20125;-82
2023/10/31 12:31:51;;;;;;;0.10;0.10;;;16.20;81.20;;;;;;5025605;28;20033;-82
2023/10/31 12:34:18;;;;;;;0.10;0.10;;;16.30;81.30;;;;;;5027380;28;20026;-83
2023/10/31 12:36:48;;;;;;;0.10;0.10;;;16.30;80.70;;;;;;5009663;28;20461;-85
2023/10/31 12:39:14;;;;;;;0.10;0.10;;;16.30;80.90;;;;;;4995084;28;20085;-82
2023/10/31 12:41:41;;;;;;;0.10;0.10;;;16.30;80.70;;;;;;5007053;28;20567;-89
2023/10/31 12:44:10;;;;;;;0.10;0.10;;;16.50;80.00;;;;;;5006824;28;20029;-82
2023/10/31 12:46:39;;;;;;;0.00;0.00;;;16.50;80.00;;;;;;5006071;28;20025;-82
2023/10/31 12:49:13;;;;;;;0.10;0.10;;;16.70;80.00;;;;;;5001901;28;20236;-86
2023/10/31 12:51:39;;;;;;;0.10;0.10;;;16.70;79.50;;;;;;5006896;28;20116;-89
2023/10/31 12:54:05;;;;;;;0.10;0.10;;;16.70;79.10;;;;;;4990914;28;20099;-83
2023/10/31 12:56:43;;;;;;;0.10;0.10;;;16.80;78.40;;;;;;5008150;28;20030;-82
2023/10/31 12:59:12;;;;;;;0.10;0.10;;;16.70;77.80;;;;;;4993992;28;20121;-82
2023/10/31 13:01:43;;;;;;;0.10;0.10;;;16.80;77.80;;;;;;5013012;28;20449;-82
2023/10/31 13:04:09;;;;;;;0.10;0.10;;;16.80;78.20;;;;;;5009822;28;20075;-81
2023/10/31 13:06:35;;;;;;;0.10;0.10;;;16.70;78.20;;;;;;5005968;28;20029;-82
2023/10/31 13:09:03;;;;;;;0.10;0.10;;;16.60;78.50;;;;;;5007120;28;20030;-82
2023/10/31 13:11:32;;;;;;;0.10;0.10;;;16.50;78.50;;;;;;4995785;28;20047;-81
2023/10/31 13:13:58;;;;;;;0.10;0.10;;;16.50;79.20;;;;;;5007953;28;20036;-80
2023/10/31 13:16:26;;;;;;;0.10;0.10;;;16.50;79.10;;;;;;5009667;28;20037;-83
2023/10/31 13:18:53;;;;;;;0.08;0.08;;;16.40;79.50;;;;;;4989132;28;20097;-77
2023/10/31 13:21:19;;;;;;;0.10;0.10;;;16.40;79.40;;;;;;4987390;28;20053;-80
2023/10/31 13:23:47;;;;;;;0.10;0.10;;;16.40;79.30;;;;;;5005912;28;20569;-82
2023/10/31 13:26:13;;;;;;;0.10;0.10;;;16.40;78.50;;;;;;4989601;28;20142;-85
2023/10/31 13:28:42;;;;;;;0.08;0.08;;;16.40;78.50;;;;;;5004238;28;20090;-85
2023/10/31 13:31:08;;;;;;;0.10;0.10;;;16.40;78.40;;;;;;4994508;28;20046;-86
2023/10/31 13:33:34;;;;;;;0.08;0.08;;;16.40;78.10;;;;;;4995777;28;20026;-82
2023/10/31 13:36:00;;;;;;;0.10;0.10;;;16.40;78.30;;;;;;5006769;28;20029;-82
2023/10/31 13:38:26;;;;;;;0.10;0.10;;;16.40;77.70;;;;;;4989846;28;20021;-79
2023/10/31 13:40:52;;;;;;;0.00;0.00;;;16.40;78.00;;;;;;5011618;28;20407;-83
2023/10/31 13:43:17;;;;;;;0.00;0.00;;;16.40;77.90;;;;;;5009100;28;20050;-90
2023/10/31 13:45:43;;;;;;;0.00;0.00;;;16.40;77.20;;;;;;5007916;28;20030;-86
2023/10/31 13:48:11;;;;;;;0.10;0.10;;;16.40;78.10;;;;;;4991260;28;20014;-85
2023/10/31 13:50:39;;;;;;;0.00;0.00;;;16.40;78.10;;;;;;4991286;28;20022;-87
2023/10/31 13:53:07;;;;;;;0.08;0.08;;;16.40;78.00;;;;;;4990211;28;20017;-85
2023/10/31 13:55:33;;;;;;;0.10;0.10;;;16.40;78.10;;;;;;5009407;28;20030;-87
2023/10/31 13:57:58;;;;;;;0.10;0.10;;;16.30;78.00;;;;;;5009377;28;20077;-82
2023/10/31 14:00:24;;;;;;;0.10;0.10;;;16.30;78.20;;;;;;5005346;28;20037;-87
2023/10/31 14:02:50;;;;;;;0.10;0.10;;;16.30;78.30;;;;;;5005403;28;20022;-87
2023/10/31 14:05:16;;;;;;;0.10;0.10;;;16.20;78.40;;;;;;5005737;28;20029;-80
2023/10/31 14:07:42;;;;;;;0.10;0.10;;;16.20;78.80;;;;;;4986136;28;20017;-89
2023/10/31 14:10:08;;;;;;;0.10;0.10;;;16.20;79.00;;;;;;5016574;28;20041;-85
2023/10/31 14:12:33;;;;;;;0.00;0.00;;;16.10;79.30;;;;;;4987835;28;20081;-88
2023/10/31 14:14:59;;;;;;;0.03;0.03;;;16.10;79.30;;;;;;4997742;28;20033;-93
2023/10/31 14:17:24;;;;;;;0.10;0.10;;;16.00;80.30;;;;;;4985739;28;20026;-82
2023/10/31 14:19:50;;;;;;;0.10;0.10;;;15.80;82.20;;;;;;5010673;28;20036;-83
2023/10/31 14:22:16;;;;;;;0.00;0.00;;;15.80;82.90;;;;;;5007374;28;20374;-87
2023/10/31 14:24:41;;;;;;;0.10;0.10;;;15.70;83.60;;;;;;5007789;28;20027;-84
2023/10/31 14:27:07;;;;;;;0.10;0.10;;;15.60;84.30;;;;;;4989947;28;20018;-83
2023/10/31 14:29:33;;;;;;;0.10;0.10;;;15.70;84.50;;;;;;5006154;28;20026;-84
2023/10/31 14:32:08;;;;;;;0.10;0.10;;;15.70;84.70;;;;;;5010717;28;20099;-85
2023/10/31 14:34:35;;;;;;;0.00;0.00;;;15.70;84.80;;;;;;5010117;28;20567;-87
2023/10/31 14:37:06;;;;;;;0.10;0.10;;;15.70;85.00;;;;;;4987958;28;21436;-83
2023/10/31 14:39:32;;;;;;;0.10;0.10;;;15.70;85.10;;;;;;5008619;28;20061;-84
2023/10/31 14:41:58;;;;;;;0.05;0.05;;;15.80;85.00;;;;;;5010541;28;20030;-87
2023/10/31 14:44:23;;;;;;;0.10;0.10;;;15.70;85.10;;;;;;5000848;28;20117;-83
2023/10/31 14:46:49;;;;;;;0.10;0.10;;;15.80;85.10;;;;;;5006870;28;20496;-86
2023/10/31 14:49:15;;;;;;;0.10;0.10;;;15.90;85.20;;;;;;4986410;28;20536;-84
2023/10/31 14:51:41;;;;;;;0.10;0.10;;;16.00;85.20;;;;;;4991095;28;20025;-82
2023/10/31 14:54:07;;;;;;;0.10;0.10;;;16.00;85.10;;;;;;5009750;28;20025;-83
2023/10/31 14:56:35;;;;;;;0.10;0.10;;;15.90;84.80;;;;;;5002446;28;20509;-85
2023/10/31 14:59:02;;;;;;;0.10;0.10;;;16.00;84.90;;;;;;4991153;28;20028;-81
2023/10/31 15:01:28;;;;;;;0.10;0.10;;;15.90;84.50;;;;;;4985887;28;20025;-85
2023/10/31 15:03:54;;;;;;;0.08;0.08;;;15.90;84.60;;;;;;5002997;28;20038;-87
2023/10/31 15:06:21;;;;;;;0.10;0.10;;;15.80;84.50;;;;;;5004588;28;20065;-82
2023/10/31 15:08:47;;;;;;;0.10;0.10;;;15.80;84.40;;;;;;5005501;28;20045;-84
2023/10/31 15:11:15;;;;;;;0.10;0.10;;;15.80;84.10;;;;;;5004460;28;20018;-84
2023/10/31 15:13:41;;;;;;;0.10;0.10;;;15.70;83.90;;;;;;5005036;28;20025;-84
2023/10/31 15:16:07;;;;;;;0.10;0.10;;;15.70;83.70;;;;;;5009320;28;20027;-82
2023/10/31 15:18:33;;;;;;;0.00;0.00;;;15.70;83.30;;;;;;5004096;28;20110;-81
2023/10/31 15:21:00;;;;;;;0.10;0.10;;;15.60;83.20;;;;;;5009216;28;20366;-80
2023/10/31 15:23:29;;;;;;;0.10;0.10;;;15.60;83.50;;;;;;5004304;28;20381;-80
2023/10/31 15:25:57;;;;;;;0.10;0.10;;;15.60;82.90;;;;;;4982386;28;20018;-84
2023/10/31 15:28:23;;;;;;;0.10;0.10;;;15.60;83.00;;;;;;4992465;28;20175;-84
2023/10/31 15:30:49;;;;;;;0.10;0.10;;;15.60;82.70;;;;;;4986056;28;20058;-84
2023/10/31 15:33:15;;;;;;;0.10;0.10;;;15.50;82.30;;;;;;4984557;28;20026;-82
2023/10/31 15:35:41;;;;;;;0.10;0.10;;;15.50;81.90;;;;;;4983330;28;20019;-85
2023/10/31 15:38:07;;;;;;;0.10;0.10;;;15.50;82.00;;;;;;5006923;28;20026;-81
2023/10/31 15:40:32;;;;;;;0.00;0.00;;;15.50;82.30;;;;;;4982350;28;20026;-81
2023/10/31 15:42:58;;;;;;;0.00;0.00;;;15.50;82.10;;;;;;4985935;28;20027;-80
2023/10/31 15:45:23;;;;;;;0.10;0.10;;;15.50;82.00;;;;;;4985808;28;20037;-79
2023/10/31 15:47:49;;;;;;;0.10;0.10;;;15.50;82.00;;;;;;4985662;28;20034;-85
2023/10/31 15:50:15;;;;;;;0.00;0.00;;;15.50;81.80;;;;;;4988363;28;20026;-87
2023/10/31 15:52:41;;;;;;;0.00;0.00;;;15.40;81.90;;;;;;4986158;28;20473;-91
2023/10/31 15:55:10;;;;;;;0.03;0.03;;;15.40;82.00;;;;;;4991238;28;20155;-80
2023/10/31 15:57:36;;;;;;;0.00;0.00;;;15.40;82.00;;;;;;4998331;28;22049;-79
2023/10/31 16:00:01;;;;;;;0.00;0.00;;;15.40;82.10;;;;;;4986440;28;20057;-80
2023/10/31 16:02:27;;;;;;;0.00;0.00;;;15.40;82.20;;;;;;4979339;28;20041;-81
2023/10/31 16:04:53;;;;;;;0.10;0.10;;;15.40;82.30;;;;;;4984548;28;20023;-81
2023/10/31 16:07:20;;;;;;;0.10;0.10;;;15.30;82.40;;;;;;4982259;28;20106;-80
2023/10/31 16:09:51;;;;;;;0.00;0.00;;;15.30;82.50;;;;;;4988138;28;20134;-84
2023/10/31 16:12:18;;;;;;;0.10;0.10;;;15.30;82.70;;;;;;4994105;28;20030;-77
2023/10/31 16:14:44;;;;;;;0.05;0.05;;;15.20;82.80;;;;;;4986694;28;20040;-76
2023/10/31 16:17:09;;;;;;;0.10;0.10;;;15.20;83.00;;;;;;4984233;28;20030;-77
2023/10/31 16:19:35;;;;;;;0.10;0.10;;;15.20;83.20;;;;;;4984964;28;20044;-79
2023/10/31 16:22:01;;;;;;;0.00;0.00;;;15.20;83.30;;;;;;4986705;28;20035;-79
2023/10/31 16:24:27;;;;;;;0.10;0.10;;;15.20;83.50;;;;;;4982086;28;20554;-78
2023/10/31 16:26:53;;;;;;;0.08;0.08;;;15.20;83.40;;;;;;4987132;28;20444;-78
2023/10/31 16:29:18;;;;;;;0.10;0.10;;;15.10;83.60;;;;;;4984900;28;20023;-78
2023/10/31 16:31:48;;;;;;;0.10;0.10;;;15.20;83.70;;;;;;4993135;28;20043;-82
2023/10/31 16:34:22;;;;;;;0.05;0.05;;;15.10;83.90;;;;;;4989862;28;20510;-80
2023/10/31 16:36:48;;;;;;;0.10;0.10;;;15.10;84.00;;;;;;4968092;28;20030;-78
2023/10/31 16:39:14;;;;;;;0.00;0.00;;;15.10;84.10;;;;;;4993211;28;20378;-81
2023/10/31 16:41:40;;;;;;;0.10;0.10;;;15.10;84.20;;;;;;4973645;28;20045;-81
2023/10/31 16:44:05;;;;;;;0.10;0.10;;;15.10;84.20;;;;;;4994000;28;20058;-77
2023/10/31 16:46:31;;;;;;;0.10;0.10;;;15.20;84.30;;;;;;4967141;28;20397;-79
2023/10/31 16:48:57;;;;;;;0.10;0.10;;;15.20;84.30;;;;;;4978175;28;20463;-83
2023/10/31 16:51:22;;;;;;;0.10;0.10;;;15.20;84.20;;;;;;4991736;28;20018;-84
2023/10/31 16:53:58;;;;;;;0.03;0.03;;;15.20;84.40;;;;;;4992427;28;20073;-86
2023/10/31 16:56:24;;;;;;;0.08;0.08;;;15.20;84.40;;;;;;4992707;28;20377;-87
2023/10/31 16:58:50;;;;;;;0.10;0.10;;;15.10;84.40;;;;;;4991520;28;20015;-88
2023/10/31 17:01:15;;;;;;;0.10;0.10;;;15.10;84.40;;;;;;4975733;28;20045;-87
2023/10/31 17:03:41;;;;;;;0.10;0.10;;;15.10;84.50;;;;;;4975245;28;20400;-83
2023/10/31 17:06:07;;;;;;;0.00;0.00;;;15.10;84.60;;;;;;4995317;28;20077;-89
2023/10/31 17:08:33;;;;;;;0.10;0.10;;;15.10;84.60;;;;;;4975992;28;20018;-87
2023/10/31 17:10:59;;;;;;;0.10;0.10;;;15.10;84.60;;;;;;4966566;28;20077;-88
2023/10/31 17:13:25;;;;;;;0.10;0.10;;;15.10;84.60;;;;;;4980068;28;20367;-84
2023/10/31 17:15:51;;;;;;;0.10;0.10;;;15.10;84.60;;;;;;4987902;28;20458;-86
2023/10/31 17:18:18;;;;;;;0.10;0.10;;;15.10;84.70;;;;;;4977000;28;20031;-85
2023/10/31 17:20:54;;;;;;;0.00;0.00;;;15.10;84.70;;;;;;4961536;28;20025;-87
2023/10/31 17:23:21;;;;;;;0.10;0.10;;;15.10;84.70;;;;;;4975513;28;20031;-88
2023/10/31 17:25:47;;;;;;;0.00;0.00;;;15.10;84.80;;;;;;4960496;28;20031;-89
2023/10/31 17:28:15;;;;;;;0.10;0.10;;;15.10;84.70;;;;;;4959116;28;20023;-85
2023/10/31 17:30:41;;;;;;;0.10;0.10;;;15.10;84.70;;;;;;4981696;28;20386;-80
2023/10/31 17:33:07;;;;;;;0.10;0.10;;;15.10;84.70;;;;;;4991761;28;20026;-86
2023/10/31 17:35:33;;;;;;;0.08;0.08;;;15.20;84.70;;;;;;4996363;28;20026;-81
2023/10/31 17:37:58;;;;;;;0.10;0.10;;;15.10;84.70;;;;;;4989934;28;20041;-82
2023/10/31 17:40:26;;;;;;;0.10;0.10;;;15.10;84.80;;;;;;5014482;28;20496;-83
2023/10/31 17:42:52;;;;;;;0.10;0.10;;;15.10;84.80;;;;;;5004844;28;20040;-87
2023/10/31 17:45:20;;;;;;;0.10;0.10;;;15.00;85.00;;;;;;5004064;28;20070;-80
2023/10/31 17:47:46;;;;;;;0.10;0.10;;;15.00;85.10;;;;;;5003449;28;20926;-84
2023/10/31 17:50:13;;;;;;;0.08;0.08;;;15.00;85.10;;;;;;4991272;28;20117;-81
2023/10/31 17:52:38;;;;;;;0.10;0.10;;;15.00;85.20;;;;;;5002501;28;20033;-85
2023/10/31 17:55:04;;;;;;;0.10;0.10;;;15.00;85.30;;;;;;5017577;28;20029;-80
2023/10/31 17:57:30;;;;;;;0.08;0.08;;;15.00;85.40;;;;;;5021494;28;20108;-86
2023/10/31 17:59:56;;;;;;;0.10;0.10;;;15.00;85.30;;;;;;4999248;28;20644;-89
2023/10/31 18:02:21;;;;;;;0.10;0.10;;;15.00;85.40;;;;;;4986316;28;20036;-85
2023/10/31 18:04:48;;;;;;;0.10;0.10;;;15.00;85.50;;;;;;5014581;28;20109;-82
2023/10/31 18:07:14;;;;;;;0.00;0.00;;;15.00;85.50;;;;;;5004361;28;20026;-85
2023/10/31 18:09:40;;;;;;;0.10;0.10;;;15.00;85.60;;;;;;5006953;28;20033;-82
2023/10/31 18:12:07;;;;;;;0.10;0.10;;;15.00;85.60;;;;;;5011165;28;20021;-83
2023/10/31 18:14:34;;;;;;;0.10;0.10;;;15.00;85.60;;;;;;4996553;28;20034;-81
2023/10/31 18:16:59;;;;;;;0.08;0.08;;;15.00;85.60;;;;;;4990480;28;20037;-83